Time;durP1;ratioP1;P1;durP2;ratioP2;P2;SDS_P1;SDS_P2;PMS_P1;PMS_P2;Temp;Humidity;BMP_temperature;BMP_pressure;BME280_temperature;BME280_humidity;BME280_pressure;Samples;Min_cycle;Max_cycle;Signal;HPM_P1;HPM_P2
2023/08/04 00:01:38;;;;;;;1.00;0.80;;;;;;;;;;6161730;28;20466;-75
2023/08/04 00:04:38;;;;;;;0.97;0.60;;;;;;;;;;6156630;28;20035;-75
2023/08/04 00:07:38;;;;;;;1.10;1.00;;;;;;;;;;6146291;28;20050;-74
2023/08/04 00:10:39;;;;;;;1.27;0.80;;;;;;;;;;6148108;29;20127;-75
2023/08/04 00:13:39;;;;;;;0.67;0.67;;;;;;;;;;6147308;29;20039;-76
2023/08/04 00:16:39;;;;;;;1.10;0.77;;;;;;;;;;6147436;28;20117;-76
2023/08/04 00:19:40;;;;;;;1.43;0.80;;;;;;;;;;6155301;28;20039;-79
2023/08/04 00:22:40;;;;;;;3.65;0.65;;;;;;;;;;6145727;29;20274;-77
2023/08/04 00:25:40;;;;;;;1.30;0.80;;;;;;;;;;6144045;28;20519;-78
2023/08/04 00:28:40;;;;;;;1.53;0.70;;;;;;;;;;6146457;29;20087;-78
2023/08/04 00:31:41;;;;;;;1.23;0.90;;;;;;;;;;6146104;29;20027;-78
2023/08/04 00:34:41;;;;;;;1.87;0.90;;;;;;;;;;6145177;28;20042;-78
2023/08/04 00:37:41;;;;;;;1.27;0.70;;;;;;;;;;6144717;29;20059;-79
2023/08/04 00:40:41;;;;;;;1.23;0.80;;;;;;;;;;6137774;29;20027;-80
2023/08/04 00:43:41;;;;;;;0.97;0.67;;;;;;;;;;6144855;28;20030;-75
2023/08/04 00:46:42;;;;;;;1.03;0.60;;;;;;;;;;6141445;28;20019;-75
2023/08/04 00:49:45;;;;;;;1.33;1.00;;;;;;;;;;6143444;29;20035;-75
2023/08/04 00:52:45;;;;;;;1.95;0.80;;;;;;;;;;6145182;28;20023;-74
2023/08/04 00:55:45;;;;;;;1.17;0.70;;;;;;;;;;6145767;29;20089;-74
2023/08/04 00:58:46;;;;;;;1.17;0.68;;;;;;;;;;6145818;28;20027;-73
2023/08/04 01:01:46;;;;;;;0.67;0.67;;;;;;;;;;6145816;28;20058;-75
2023/08/04 01:04:47;;;;;;;2.08;0.60;;;;;;;;;;6144510;28;20025;-74
2023/08/04 01:07:54;;;;;;;0.87;0.50;;;;;;;;;;6146131;28;20127;-74
2023/08/04 01:11:13;;;;;;;1.05;0.65;;;;;;;;;;6148344;28;20061;-73
2023/08/04 01:14:14;;;;;;;0.93;0.63;;;;;;;;;;6145735;28;20050;-73
2023/08/04 01:17:23;;;;;;;1.58;0.65;;;;;;;;;;6140545;29;20035;-73
2023/08/04 01:20:24;;;;;;;1.30;0.75;;;;;;;;;;6143419;29;20111;-73
2023/08/04 01:23:24;;;;;;;0.85;0.77;;;;;;;;;;6146052;29;20039;-73
2023/08/04 01:26:25;;;;;;;1.90;0.73;;;;;;;;;;6158808;28;20031;-72
2023/08/04 01:29:25;;;;;;;2.40;0.80;;;;;;;;;;6149790;28;20142;-73
2023/08/04 01:32:25;;;;;;;0.60;0.50;;;;;;;;;;6149612;28;20071;-73
2023/08/04 01:35:26;;;;;;;1.92;0.95;;;;;;;;;;6145541;28;20020;-73
2023/08/04 01:38:26;;;;;;;1.10;0.70;;;;;;;;;;6150079;29;20027;-73
2023/08/04 01:41:26;;;;;;;0.90;0.53;;;;;;;;;;6150096;28;20027;-74
2023/08/04 01:44:26;;;;;;;1.53;0.60;;;;;;;;;;6145347;28;20035;-73
2023/08/04 01:47:27;;;;;;;1.13;0.63;;;;;;;;;;6149991;29;20031;-73
2023/08/04 01:50:27;;;;;;;1.53;0.70;;;;;;;;;;6147469;29;20082;-73
2023/08/04 01:53:27;;;;;;;1.00;0.60;;;;;;;;;;6149423;28;20059;-72
2023/08/04 01:56:27;;;;;;;1.00;0.67;;;;;;;;;;6146493;29;20023;-71
2023/08/04 01:59:27;;;;;;;1.13;0.70;;;;;;;;;;6150379;28;20027;-71
2023/08/04 02:02:28;;;;;;;1.20;0.63;;;;;;;;;;6147493;28;20031;-70
2023/08/04 02:05:28;;;;;;;0.63;0.60;;;;;;;;;;6148585;29;20047;-71
2023/08/04 02:08:28;;;;;;;1.50;0.67;;;;;;;;;;6146356;28;20039;-71
2023/08/04 02:11:30;;;;;;;2.40;0.63;;;;;;;;;;6147738;28;20024;-71
2023/08/04 02:14:30;;;;;;;;;;;;;;;;;;6148468;28;20043;-70
2023/08/04 02:17:30;;;;;;;2.38;0.70;;;;;;;;;;6148978;28;19910;-69
2023/08/04 02:20:30;;;;;;;1.07;0.60;;;;;;;;;;6144202;29;20499;-69
2023/08/04 02:23:31;;;;;;;2.07;0.50;;;;;;;;;;6149079;29;20031;-69
2023/08/04 02:26:32;;;;;;;0.82;0.60;;;;;;;;;;6149942;29;20027;-72
2023/08/04 02:29:32;;;;;;;0.73;0.60;;;;;;;;;;6149154;28;20035;-71
2023/08/04 02:32:32;;;;;;;1.93;0.80;;;;;;;;;;6146223;28;20278;-70
2023/08/04 02:35:32;;;;;;;0.83;0.70;;;;;;;;;;6137616;28;20268;-70
2023/08/04 02:38:33;;;;;;;0.80;0.70;;;;;;;;;;6148198;28;20023;-70
2023/08/04 02:41:33;;;;;;;0.90;0.50;;;;;;;;;;6148939;29;20392;-70
2023/08/04 02:44:33;;;;;;;1.15;0.70;;;;;;;;;;6146743;28;20032;-72
2023/08/04 02:47:34;;;;;;;1.23;0.77;;;;;;;;;;6149409;29;20523;-72
2023/08/04 02:50:34;;;;;;;0.90;0.60;;;;;;;;;;6147141;28;20036;-72
2023/08/04 02:53:35;;;;;;;1.48;0.90;;;;;;;;;;6147757;29;20038;-72
2023/08/04 02:56:35;;;;;;;0.95;0.52;;;;;;;;;;6150746;28;20035;-73
2023/08/04 02:59:36;;;;;;;1.15;0.80;;;;;;;;;;6150849;29;20353;-74
2023/08/04 03:02:36;;;;;;;1.75;0.77;;;;;;;;;;6148694;28;20119;-74
2023/08/04 03:05:36;;;;;;;1.03;0.80;;;;;;;;;;6148613;29;20047;-74
2023/08/04 03:08:37;;;;;;;2.30;0.70;;;;;;;;;;6162854;28;20110;-75
2023/08/04 03:11:37;;;;;;;1.07;0.70;;;;;;;;;;6169495;28;20475;-75
2023/08/04 03:14:37;;;;;;;2.20;0.60;;;;;;;;;;6149885;28;20066;-75
2023/08/04 03:17:37;;;;;;;1.03;0.80;;;;;;;;;;6144550;28;20082;-75
2023/08/04 03:20:38;;;;;;;0.97;0.60;;;;;;;;;;6148148;28;20523;-74
2023/08/04 03:23:39;;;;;;;;;;;;;;;;;;6150216;28;20027;-74
2023/08/04 03:26:39;;;;;;;0.70;0.50;;;;;;;;;;6151995;28;19917;-73
2023/08/04 03:29:39;;;;;;;1.37;0.70;;;;;;;;;;6144061;28;20031;-73
2023/08/04 03:32:39;;;;;;;1.03;0.60;;;;;;;;;;6145902;28;20159;-72
2023/08/04 03:35:39;;;;;;;0.90;0.70;;;;;;;;;;6143733;28;20144;-73
2023/08/04 03:38:40;;;;;;;0.50;0.50;;;;;;;;;;6146586;29;20424;-73
2023/08/04 03:41:40;;;;;;;0.67;0.50;;;;;;;;;;6145682;28;20070;-72
2023/08/04 03:44:40;;;;;;;2.70;0.70;;;;;;;;;;6144682;28;20051;-72
2023/08/04 03:47:40;;;;;;;3.03;0.73;;;;;;;;;;6143517;28;20062;-73
2023/08/04 03:50:41;;;;;;;1.97;0.50;;;;;;;;;;6140734;28;20340;-73
2023/08/04 03:53:41;;;;;;;1.00;0.60;;;;;;;;;;6144426;28;20046;-73
2023/08/04 03:56:41;;;;;;;0.90;0.63;;;;;;;;;;6145063;28;20490;-74
2023/08/04 03:59:41;;;;;;;0.80;0.60;;;;;;;;;;6148580;28;20027;-76
2023/08/04 04:02:41;;;;;;;0.70;0.60;;;;;;;;;;6146668;28;20031;-75
2023/08/04 04:05:42;;;;;;;0.60;0.57;;;;;;;;;;6146639;28;20523;-73
2023/08/04 04:08:42;;;;;;;1.20;0.60;;;;;;;;;;6146646;28;20329;-73
2023/08/04 04:11:42;;;;;;;0.60;0.60;;;;;;;;;;6141871;28;20043;-73
2023/08/04 04:14:42;;;;;;;0.97;0.80;;;;;;;;;;6142200;29;20079;-72
2023/08/04 04:17:43;;;;;;;1.37;0.73;;;;;;;;;;6145690;28;20162;-72
2023/08/04 04:20:43;;;;;;;1.37;0.80;;;;;;;;;;6138608;28;20527;-73
2023/08/04 04:23:43;;;;;;;2.87;0.70;;;;;;;;;;6145227;29;20045;-73
2023/08/04 04:26:43;;;;;;;1.43;0.87;;;;;;;;;;6146218;28;20457;-73
2023/08/04 04:29:43;;;;;;;1.30;0.90;;;;;;;;;;6142348;28;20038;-73
2023/08/04 04:32:44;;;;;;;0.77;0.77;;;;;;;;;;6145732;28;20198;-73
2023/08/04 04:35:49;;;;;;;1.30;0.70;;;;;;;;;;6138807;28;20094;-73
2023/08/04 04:38:49;;;;;;;1.98;1.00;;;;;;;;;;6140641;28;20023;-72
2023/08/04 04:41:49;;;;;;;1.15;0.68;;;;;;;;;;6142772;28;20027;-73
2023/08/04 04:44:49;;;;;;;1.40;0.80;;;;;;;;;;6142170;28;20035;-73
2023/08/04 04:47:50;;;;;;;1.30;0.73;;;;;;;;;;6141571;28;20027;-72
2023/08/04 04:50:51;;;;;;;1.50;0.70;;;;;;;;;;6141159;28;20035;-72
2023/08/04 04:53:51;;;;;;;1.85;0.82;;;;;;;;;;6141740;28;20035;-72
2023/08/04 04:56:51;;;;;;;1.93;0.80;;;;;;;;;;6143182;28;20035;-71
2023/08/04 04:59:51;;;;;;;1.03;0.70;;;;;;;;;;6144790;29;20366;-70
2023/08/04 05:02:52;;;;;;;0.80;0.80;;;;;;;;;;6145734;28;20027;-70
2023/08/04 05:05:52;;;;;;;1.47;0.83;;;;;;;;;;6142351;29;20322;-69
2023/08/04 05:08:52;;;;;;;0.50;0.50;;;;;;;;;;6143032;28;20034;-70
2023/08/04 05:11:52;;;;;;;1.27;0.67;;;;;;;;;;6145038;28;20045;-70
2023/08/04 05:14:53;;;;;;;1.23;0.70;;;;;;;;;;6142110;28;20039;-69
2023/08/04 05:17:53;;;;;;;1.10;0.80;;;;;;;;;;6138137;28;20094;-69
2023/08/04 05:20:55;;;;;;;0.67;0.57;;;;;;;;;;6143072;28;20063;-69
2023/08/04 05:23:55;;;;;;;1.08;0.73;;;;;;;;;;6141735;28;20035;-70
2023/08/04 05:26:56;;;;;;;2.00;0.80;;;;;;;;;;6147735;28;20447;-69
2023/08/04 05:29:56;;;;;;;;;;;;;;;;;;6150379;28;20019;-69
2023/08/04 05:32:56;;;;;;;0.90;0.70;;;;;;;;;;6145662;28;19921;-68
2023/08/04 05:35:57;;;;;;;2.23;0.93;;;;;;;;;;6143945;29;20020;-69
2023/08/04 05:38:57;;;;;;;;;;;;;;;;;;6143255;28;20409;-69
2023/08/04 05:41:57;;;;;;;1.33;0.70;;;;;;;;;;6139946;28;20005;-69
2023/08/04 05:44:57;;;;;;;0.90;0.73;;;;;;;;;;6140655;28;20031;-68
2023/08/04 05:47:58;;;;;;;;;;;;;;;;;;6140644;28;20069;-68
2023/08/04 05:50:58;;;;;;;0.90;0.70;;;;;;;;;;6137347;28;19918;-69
2023/08/04 05:53:58;;;;;;;0.90;0.73;;;;;;;;;;6140405;28;20507;-67
2023/08/04 05:56:59;;;;;;;1.03;0.70;;;;;;;;;;6145272;28;20488;-68
2023/08/04 05:59:59;;;;;;;0.80;0.80;;;;;;;;;;6144272;28;20110;-68
2023/08/04 06:02:59;;;;;;;0.70;0.70;;;;;;;;;;6142995;28;20290;-69
2023/08/04 06:06:00;;;;;;;2.28;0.90;;;;;;;;;;6144292;28;20045;-69
2023/08/04 06:09:00;;;;;;;0.80;0.70;;;;;;;;;;6141936;29;20483;-69
2023/08/04 06:12:00;;;;;;;1.27;0.90;;;;;;;;;;6142414;28;20027;-69
2023/08/04 06:15:00;;;;;;;;;;;;;;;;;;6143412;28;20027;-69
2023/08/04 06:18:00;;;;;;;0.80;0.60;;;;;;;;;;6146716;28;20068;-69
2023/08/04 06:21:00;;;;;;;;;;;;;;;;;;6146267;28;20019;-69
2023/08/04 06:24:01;;;;;;;2.65;0.88;;;;;;;;;;6139196;28;19965;-78
2023/08/04 06:27:03;;;;;;;2.47;0.83;;;;;;;;;;6145999;28;20039;-67
2023/08/04 06:30:04;;;;;;;2.20;1.00;;;;;;;;;;6135430;28;20054;-68
2023/08/04 06:33:04;;;;;;;1.52;0.90;;;;;;;;;;6132737;28;20098;-69
2023/08/04 06:36:04;;;;;;;;;;;;;;;;;;6137777;28;20039;-69
2023/08/04 06:39:05;;;;;;;1.60;0.80;;;;;;;;;;6143807;28;20287;-69
2023/08/04 06:42:05;;;;;;;;;;;;;;;;;;6147832;28;20124;-67
2023/08/04 06:45:06;;;;;;;1.23;0.73;;;;;;;;;;6135254;28;19915;-68
2023/08/04 06:48:07;;;;;;;1.33;1.08;;;;;;;;;;6144801;28;20364;-66
2023/08/04 06:51:11;;;;;;;;;;;;;;;;;;5949969;28;9999674;-65
2023/08/04 06:54:11;;;;;;;0.75;0.70;;;;;;;;;;6144848;28;20480;-65
2023/08/04 06:57:12;;;;;;;0.73;0.70;;;;;;;;;;6149145;29;20031;-65
2023/08/04 07:00:12;;;;;;;0.87;0.80;;;;;;;;;;6147494;29;20759;-65
2023/08/04 07:03:12;;;;;;;1.20;1.00;;;;;;;;;;6143157;28;20607;-65
2023/08/04 07:06:13;;;;;;;1.55;1.05;;;;;;;;;;6156851;28;20109;-65
2023/08/04 07:09:13;;;;;;;3.15;0.95;;;;;;;;;;6155799;28;20114;-66
2023/08/04 07:12:14;;;;;;;0.97;0.80;;;;;;;;;;6148444;28;20027;-66
2023/08/04 07:15:14;;;;;;;1.03;0.70;;;;;;;;;;6143665;28;20397;-66
2023/08/04 07:18:16;;;;;;;0.87;0.80;;;;;;;;;;6146289;28;20375;-65
2023/08/04 07:21:16;;;;;;;1.20;0.80;;;;;;;;;;6144760;28;20357;-65
2023/08/04 07:24:16;;;;;;;1.05;0.90;;;;;;;;;;6145772;28;20031;-65
2023/08/04 07:27:16;;;;;;;1.30;0.70;;;;;;;;;;6141757;28;20129;-65
2023/08/04 07:30:16;;;;;;;2.10;1.00;;;;;;;;;;6140187;28;20466;-66
2023/08/04 07:33:17;;;;;;;1.40;0.90;;;;;;;;;;6145372;28;20054;-65
2023/08/04 07:36:17;;;;;;;1.80;0.90;;;;;;;;;;6143061;28;20865;-65
2023/08/04 07:39:17;;;;;;;3.53;0.90;;;;;;;;;;6143179;28;20271;-65
2023/08/04 07:42:17;;;;;;;1.40;0.70;;;;;;;;;;6144607;28;20282;-65
2023/08/04 07:45:18;;;;;;;0.90;0.70;;;;;;;;;;6135341;28;20027;-66
2023/08/04 07:48:18;;;;;;;2.40;0.87;;;;;;;;;;6123496;28;20577;-66
2023/08/04 07:51:19;;;;;;;1.33;0.80;;;;;;;;;;6137630;28;20291;-66
2023/08/04 07:54:19;;;;;;;2.15;1.00;;;;;;;;;;6144607;28;20039;-66
2023/08/04 07:57:19;;;;;;;1.08;0.80;;;;;;;;;;6143011;28;20114;-66
2023/08/04 08:00:20;;;;;;;1.37;0.90;;;;;;;;;;6145197;28;20027;-66
2023/08/04 08:03:20;;;;;;;0.90;0.70;;;;;;;;;;6145888;28;20031;-66
2023/08/04 08:06:20;;;;;;;1.00;0.60;;;;;;;;;;6145449;29;20117;-66
2023/08/04 08:09:21;;;;;;;1.27;0.80;;;;;;;;;;6146083;28;20023;-65
2023/08/04 08:12:21;;;;;;;1.37;0.80;;;;;;;;;;6129282;28;20035;-66
2023/08/04 08:15:21;;;;;;;1.53;0.90;;;;;;;;;;6142740;28;20279;-66
2023/08/04 08:18:21;;;;;;;1.80;0.70;;;;;;;;;;6143397;28;20117;-67
2023/08/04 08:21:21;;;;;;;1.05;0.70;;;;;;;;;;6141857;28;20035;-65
2023/08/04 08:24:22;;;;;;;1.27;0.70;;;;;;;;;;6142005;28;20472;-66
2023/08/04 08:27:22;;;;;;;1.63;0.70;;;;;;;;;;6145911;29;20023;-66
2023/08/04 08:30:22;;;;;;;0.98;0.50;;;;;;;;;;6145395;28;20019;-65
2023/08/04 08:33:23;;;;;;;0.90;0.70;;;;;;;;;;6145625;28;20508;-66
2023/08/04 08:36:24;;;;;;;1.60;0.65;;;;;;;;;;6143996;28;20042;-67
2023/08/04 08:39:24;;;;;;;0.63;0.52;;;;;;;;;;6143906;28;20134;-67
2023/08/04 08:42:25;;;;;;;1.85;0.65;;;;;;;;;;6142563;28;20057;-67
2023/08/04 08:45:29;;;;;;;1.60;0.77;;;;;;;;;;6127522;28;20081;-67
2023/08/04 08:48:30;;;;;;;0.80;0.60;;;;;;;;;;6141517;28;20020;-68
2023/08/04 08:51:30;;;;;;;1.30;0.60;;;;;;;;;;6127534;28;20468;-68
2023/08/04 08:54:31;;;;;;;1.48;0.77;;;;;;;;;;6144476;28;20126;-68
2023/08/04 08:57:31;;;;;;;1.35;0.80;;;;;;;;;;6143433;28;20078;-68
2023/08/04 09:00:33;;;;;;;1.20;0.90;;;;;;;;;;6141057;28;20034;-69
2023/08/04 09:03:34;;;;;;;1.73;0.90;;;;;;;;;;5786266;28;9999663;-68
2023/08/04 09:06:34;;;;;;;1.95;0.80;;;;;;;;;;6141515;28;20063;-68
2023/08/04 09:09:35;;;;;;;1.57;0.90;;;;;;;;;;6142999;28;20058;-67
2023/08/04 09:12:35;;;;;;;1.75;0.98;;;;;;;;;;6144849;28;20291;-67
2023/08/04 09:15:46;;;;;;;0.80;0.70;;;;;;;;;;6142053;28;20054;-68
2023/08/04 09:18:46;;;;;;;2.00;0.85;;;;;;;;;;6148098;28;20463;-67
2023/08/04 09:21:56;;;;;;;2.13;0.95;;;;;;;;;;6153771;28;20089;-67
2023/08/04 09:25:00;;;;;;;0.82;0.73;;;;;;;;;;6125778;29;20043;-67
2023/08/04 09:28:13;;;;;;;1.20;0.90;;;;;;;;;;6129986;29;20031;-67
2023/08/04 09:31:14;;;;;;;1.30;0.90;;;;;;;;;;6132449;29;20036;-67
2023/08/04 09:34:14;;;;;;;1.70;0.80;;;;;;;;;;6129302;29;20020;-68
2023/08/04 09:37:15;;;;;;;1.23;0.87;;;;;;;;;;6137082;29;20038;-67
2023/08/04 09:40:17;;;;;;;0.95;0.70;;;;;;;;;;6142686;28;20354;-68
2023/08/04 09:43:20;;;;;;;1.10;0.70;;;;;;;;;;6145112;28;20031;-69
2023/08/04 09:46:20;;;;;;;3.17;0.90;;;;;;;;;;6146437;28;20443;-69
2023/08/04 09:49:21;;;;;;;0.90;0.60;;;;;;;;;;6149186;28;20024;-69
2023/08/04 09:52:22;;;;;;;0.82;0.60;;;;;;;;;;6143792;28;20034;-69
2023/08/04 09:55:23;;;;;;;1.27;0.60;;;;;;;;;;6132284;28;20027;-69
2023/08/04 09:58:23;;;;;;;0.93;0.60;;;;;;;;;;6152233;29;20381;-70
2023/08/04 10:01:24;;;;;;;1.27;0.60;;;;;;;;;;6148424;28;20031;-69
2023/08/04 10:04:24;;;;;;;1.67;0.70;;;;;;;;;;6151816;29;20356;-69
2023/08/04 10:07:25;;;;;;;0.98;0.60;;;;;;;;;;6150524;28;20051;-69
2023/08/04 10:10:25;;;;;;;1.00;0.60;;;;;;;;;;6150766;28;20562;-68
2023/08/04 10:13:26;;;;;;;0.57;0.40;;;;;;;;;;6152612;28;20110;-68
2023/08/04 10:16:29;;;;;;;0.98;0.70;;;;;;;;;;6151297;29;20027;-68
2023/08/04 10:19:29;;;;;;;2.30;0.90;;;;;;;;;;6150706;28;20023;-68
2023/08/04 10:22:34;;;;;;;0.95;0.60;;;;;;;;;;6150814;28;20023;-67
2023/08/04 10:25:34;;;;;;;1.17;0.60;;;;;;;;;;6151720;28;20031;-68
2023/08/04 10:28:35;;;;;;;1.15;0.80;;;;;;;;;;6152384;28;20027;-68
2023/08/04 10:31:55;;;;;;;1.60;0.70;;;;;;;;;;6171247;28;20073;-68
2023/08/04 10:34:58;;;;;;;1.08;0.60;;;;;;;;;;6166973;28;20414;-68
2023/08/04 10:37:59;;;;;;;2.05;0.68;;;;;;;;;;6148739;28;20033;-67
2023/08/04 10:41:07;;;;;;;0.75;0.50;;;;;;;;;;6151664;28;20027;-67
2023/08/04 10:44:08;;;;;;;0.95;0.50;;;;;;;;;;6149767;29;20023;-67
2023/08/04 10:47:10;;;;;;;1.65;0.60;;;;;;;;;;6149661;28;20023;-69
2023/08/04 10:50:11;;;;;;;0.40;0.40;;;;;;;;;;6150066;29;20034;-69
2023/08/04 10:53:12;;;;;;;1.95;0.60;;;;;;;;;;6137411;29;20028;-69
2023/08/04 10:56:12;;;;;;;0.98;0.77;;;;;;;;;;6128582;29;20042;-69
2023/08/04 10:59:19;;;;;;;1.67;0.70;;;;;;;;;;5918234;28;10000867;-68
2023/08/04 11:02:22;;;;;;;1.75;0.75;;;;;;;;;;6125120;29;20808;-68
2023/08/04 11:05:23;;;;;;;0.98;0.50;;;;;;;;;;6145934;28;20103;-69
2023/08/04 11:08:24;;;;;;;1.65;0.73;;;;;;;;;;6148045;28;20608;-69
2023/08/04 11:11:25;;;;;;;1.00;0.70;;;;;;;;;;6148540;29;20119;-69
2023/08/04 11:14:26;;;;;;;1.08;0.70;;;;;;;;;;6144090;29;20291;-68
2023/08/04 11:17:27;;;;;;;1.02;0.70;;;;;;;;;;6140080;28;20020;-70
2023/08/04 11:20:28;;;;;;;0.75;0.60;;;;;;;;;;6129376;28;20395;-69
2023/08/04 11:23:29;;;;;;;1.38;0.60;;;;;;;;;;6150152;29;20534;-68
2023/08/04 11:26:29;;;;;;;0.63;0.45;;;;;;;;;;6149466;29;20030;-68
2023/08/04 11:29:29;;;;;;;1.15;0.32;;;;;;;;;;6150747;28;20433;-67
2023/08/04 11:32:30;;;;;;;0.93;0.50;;;;;;;;;;6150143;28;20111;-68
2023/08/04 11:35:32;;;;;;;0.85;0.60;;;;;;;;;;6136988;28;20032;-68
2023/08/04 11:38:32;;;;;;;0.60;0.60;;;;;;;;;;6149094;28;20106;-68
2023/08/04 11:41:33;;;;;;;1.17;0.60;;;;;;;;;;6149809;28;20055;-67
2023/08/04 11:44:33;;;;;;;1.13;0.65;;;;;;;;;;6150319;28;20031;-68
2023/08/04 11:47:35;;;;;;;1.63;0.60;;;;;;;;;;6149800;28;20027;-68
2023/08/04 11:50:35;;;;;;;0.90;0.60;;;;;;;;;;6148086;28;20035;-68
2023/08/04 11:53:36;;;;;;;1.30;0.63;;;;;;;;;;6133691;28;20027;-68
2023/08/04 11:56:40;;;;;;;0.60;0.60;;;;;;;;;;6149137;28;20031;-68
2023/08/04 11:59:49;;;;;;;1.17;0.40;;;;;;;;;;6148649;28;20031;-68
2023/08/04 12:02:57;;;;;;;0.70;0.53;;;;;;;;;;6148861;28;20031;-67
2023/08/04 12:06:00;;;;;;;0.90;0.60;;;;;;;;;;6146326;28;20329;-68
2023/08/04 12:09:03;;;;;;;1.15;0.68;;;;;;;;;;6146634;29;20081;-67
2023/08/04 12:12:07;;;;;;;1.20;0.70;;;;;;;;;;6150228;28;20055;-68
2023/08/04 12:15:07;;;;;;;0.70;0.60;;;;;;;;;;6154550;28;20479;-68
2023/08/04 12:18:24;;;;;;;0.80;0.68;;;;;;;;;;6160543;28;20099;-68
2023/08/04 12:21:26;;;;;;;2.22;0.60;;;;;;;;;;6152903;28;20519;-67
2023/08/04 12:24:28;;;;;;;1.58;0.60;;;;;;;;;;6150378;29;20023;-67
2023/08/04 12:27:28;;;;;;;0.80;0.60;;;;;;;;;;6148162;28;20081;-68
2023/08/04 12:30:28;;;;;;;1.08;0.65;;;;;;;;;;6149040;28;20039;-68
2023/08/04 12:33:29;;;;;;;0.50;0.50;;;;;;;;;;6149523;28;20546;-74
2023/08/04 12:36:29;;;;;;;1.33;0.80;;;;;;;;;;6148191;29;20047;-71
2023/08/04 12:39:29;;;;;;;0.80;0.50;;;;;;;;;;6148896;28;20081;-72
2023/08/04 12:42:29;;;;;;;;;;;;;;;;;;6149520;28;20333;-70
2023/08/04 12:45:29;;;;;;;2.17;0.75;;;;;;;;;;6150795;28;19910;-79
2023/08/04 12:48:29;;;;;;;;;;;;;;;;;;6174236;28;20138;-73
2023/08/04 12:51:30;;;;;;;0.88;0.55;;;;;;;;;;6171451;28;19910;-74
2023/08/04 12:54:30;;;;;;;;;;;;;;;;;;6126402;28;20032;-74
2023/08/04 12:57:30;;;;;;;0.67;0.60;;;;;;;;;;6125470;29;20229;-74
2023/08/04 13:00:30;;;;;;;;;;;;;;;;;;6143804;28;20028;-76
2023/08/04 13:03:31;;;;;;;0.35;0.35;;;;;;;;;;6149172;28;19926;-74
2023/08/04 13:06:31;;;;;;;;;;;;;;;;;;6147946;28;20102;-75
2023/08/04 13:09:31;;;;;;;0.80;0.40;;;;;;;;;;6147739;28;19970;-74
2023/08/04 13:12:31;;;;;;;;;;;;;;;;;;6147823;29;20027;-73
2023/08/04 13:15:32;;;;;;;0.60;0.30;;;;;;;;;;6148036;28;20373;-73
2023/08/04 13:18:32;;;;;;;;;;;;;;;;;;6148600;29;20949;-74
2023/08/04 13:21:32;;;;;;;0.50;0.40;;;;;;;;;;6167850;28;20307;-74
2023/08/04 13:24:32;;;;;;;0.37;0.37;;;;;;;;;;6175952;28;20045;-73
2023/08/04 13:27:32;;;;;;;0.77;0.43;;;;;;;;;;6159374;28;20067;-74
2023/08/04 13:30:33;;;;;;;;;;;;;;;;;;6152438;29;20029;-75
2023/08/04 13:33:33;;;;;;;0.57;0.40;;;;;;;;;;6150262;28;19925;-75
2023/08/04 13:36:33;;;;;;;;;;;;;;;;;;6138814;28;20023;-75
2023/08/04 13:39:33;;;;;;;0.50;0.35;;;;;;;;;;6153429;29;19997;-75
2023/08/04 13:42:34;;;;;;;1.63;0.63;;;;;;;;;;6153627;29;20039;-76
2023/08/04 13:45:34;;;;;;;1.67;0.60;;;;;;;;;;6151931;29;20042;-75
2023/08/04 13:48:34;;;;;;;;;;;;;;;;;;6153230;29;20027;-74
2023/08/04 13:51:35;;;;;;;0.65;0.40;;;;;;;;;;6150245;28;19915;-72
2023/08/04 13:54:35;;;;;;;;;;;;;;;;;;6143216;28;20137;-72
2023/08/04 13:57:38;;;;;;;0.40;0.40;;;;;;;;;;6152684;29;20355;-72
2023/08/04 14:00:38;;;;;;;1.00;0.50;;;;;;;;;;6151451;28;20110;-73
2023/08/04 14:03:38;;;;;;;0.63;0.50;;;;;;;;;;6150635;29;20030;-74
2023/08/04 14:06:39;;;;;;;0.73;0.60;;;;;;;;;;6151350;28;20055;-73
2023/08/04 14:09:42;;;;;;;;;;;;;;;;;;6150730;28;20035;-74
2023/08/04 14:12:42;;;;;;;1.27;0.40;;;;;;;;;;6153145;28;19917;-73
2023/08/04 14:15:42;;;;;;;0.50;0.50;;;;;;;;;;6151518;29;20376;-73
2023/08/04 14:18:42;;;;;;;;;;;;;;;;;;6152316;28;20015;-74
2023/08/04 14:21:43;;;;;;;1.63;0.40;;;;;;;;;;6151611;28;19914;-74
2023/08/04 14:24:43;;;;;;;;;;;;;;;;;;6150537;28;20027;-74
2023/08/04 14:27:43;;;;;;;0.88;0.50;;;;;;;;;;6151462;28;19910;-74
2023/08/04 14:30:43;;;;;;;1.23;0.60;;;;;;;;;;6151245;29;20196;-74
2023/08/04 14:33:44;;;;;;;0.95;0.68;;;;;;;;;;6150258;28;20282;-74
2023/08/04 14:36:44;;;;;;;;;;;;;;;;;;6137578;28;20074;-74
2023/08/04 14:39:44;;;;;;;0.55;0.50;;;;;;;;;;6149720;28;20392;-73
2023/08/04 14:42:44;;;;;;;;;;;;;;;;;;6152365;28;20038;-71
2023/08/04 14:45:44;;;;;;;0.77;0.50;;;;;;;;;;6149618;28;19914;-72
2023/08/04 14:48:45;;;;;;;;;;;;;;;;;;6150227;29;20027;-71
2023/08/04 14:51:45;;;;;;;0.75;0.50;;;;;;;;;;6149226;28;19911;-70
2023/08/04 14:54:46;;;;;;;;;;;;;;;;;;6128425;29;20040;-71
2023/08/04 14:57:47;;;;;;;0.52;0.50;;;;;;;;;;6143262;28;20319;-70
2023/08/04 15:00:47;;;;;;;;;;;;;;;;;;6147622;28;20166;-73
2023/08/04 15:03:49;;;;;;;0.57;0.40;;;;;;;;;;5801318;28;10000851;-72
2023/08/04 15:06:49;;;;;;;0.82;0.40;;;;;;;;;;6141571;28;20099;-71
2023/08/04 15:09:49;;;;;;;;;;;;;;;;;;6140205;28;20415;-71
2023/08/04 15:12:49;;;;;;;0.50;0.50;;;;;;;;;;6138173;28;19970;-71
2023/08/04 15:15:49;;;;;;;;;;;;;;;;;;6135541;28;20437;-72
2023/08/04 15:18:50;;;;;;;1.20;0.40;;;;;;;;;;6130693;28;19914;-71
2023/08/04 15:21:50;;;;;;;;;;;;;;;;;;6132205;28;20059;-70
2023/08/04 15:24:50;;;;;;;0.63;0.32;;;;;;;;;;6124464;28;19918;-70
2023/08/04 15:27:50;;;;;;;;;;;;;;;;;;6129150;28;20098;-71
2023/08/04 15:30:50;;;;;;;0.88;0.55;;;;;;;;;;6129692;28;19969;-71
2023/08/04 15:33:50;;;;;;;;;;;;;;;;;;6128308;28;20057;-69
2023/08/04 15:36:51;;;;;;;0.63;0.47;;;;;;;;;;6133493;28;19965;-69
2023/08/04 15:39:51;;;;;;;0.80;0.67;;;;;;;;;;6131905;28;20043;-69
2023/08/04 15:42:51;;;;;;;0.80;0.80;;;;;;;;;;6131885;28;20061;-69
2023/08/04 15:45:51;;;;;;;;;;;;;;;;;;6139399;28;20294;-67
2023/08/04 15:48:51;;;;;;;0.60;0.60;;;;;;;;;;6126871;29;20101;-69
2023/08/04 15:51:51;;;;;;;;;;;;;;;;;;6137402;28;20554;-68
2023/08/04 15:54:52;;;;;;;1.20;0.82;;;;;;;;;;6137004;28;19915;-67
2023/08/04 15:57:52;;;;;;;;;;;;;;;;;;6138258;28;20179;-67
2023/08/04 16:00:52;;;;;;;2.13;0.55;;;;;;;;;;6136107;28;19997;-67
2023/08/04 16:03:52;;;;;;;;;;;;;;;;;;6139669;28;20031;-67
2023/08/04 16:06:53;;;;;;;1.08;0.60;;;;;;;;;;6135493;29;19930;-67
2023/08/04 16:09:53;;;;;;;;;;;;;;;;;;6133037;28;20043;-67
2023/08/04 16:12:53;;;;;;;0.60;0.60;;;;;;;;;;6135116;28;19928;-67
2023/08/04 16:15:57;;;;;;;0.90;0.90;;;;;;;;;;6135278;28;20106;-68
2023/08/04 16:18:57;;;;;;;1.17;0.68;;;;;;;;;;6136849;28;20254;-68
2023/08/04 16:21:57;;;;;;;1.00;0.90;;;;;;;;;;6139299;28;20034;-69
2023/08/04 16:24:57;;;;;;;0.97;0.70;;;;;;;;;;6142253;29;20122;-69
2023/08/04 16:27:58;;;;;;;0.97;0.77;;;;;;;;;;6132564;28;20695;-67
2023/08/04 16:30:58;;;;;;;1.83;0.90;;;;;;;;;;6129657;28;20033;-67
2023/08/04 16:34:00;;;;;;;1.25;0.70;;;;;;;;;;6132375;28;20031;-69
2023/08/04 16:37:02;;;;;;;1.20;0.85;;;;;;;;;;6128754;28;20078;-70
2023/08/04 16:40:02;;;;;;;1.65;0.70;;;;;;;;;;6131351;28;20031;-67
2023/08/04 16:43:03;;;;;;;1.15;0.70;;;;;;;;;;6142669;28;20034;-67
2023/08/04 16:46:03;;;;;;;1.20;1.10;;;;;;;;;;6135623;28;20027;-68
2023/08/04 16:49:03;;;;;;;1.83;0.95;;;;;;;;;;6130455;28;20035;-66
2023/08/04 16:52:03;;;;;;;1.23;0.70;;;;;;;;;;6127976;28;20035;-66
2023/08/04 16:55:04;;;;;;;0.90;0.70;;;;;;;;;;6130531;28;20063;-66
2023/08/04 16:58:04;;;;;;;1.02;0.80;;;;;;;;;;6129602;28;20395;-67
2023/08/04 17:01:05;;;;;;;0.70;0.57;;;;;;;;;;6129749;28;20036;-67
2023/08/04 17:04:05;;;;;;;;;;;;;;;;;;6129912;28;20285;-66
2023/08/04 17:07:05;;;;;;;0.60;0.60;;;;;;;;;;6122926;28;19996;-66
2023/08/04 17:10:06;;;;;;;2.28;0.55;;;;;;;;;;6134389;28;20038;-67
2023/08/04 17:13:06;;;;;;;;;;;;;;;;;;6125504;28;20039;-67
2023/08/04 17:16:11;;;;;;;0.70;0.50;;;;;;;;;;6132025;28;20357;-67
2023/08/04 17:19:11;;;;;;;1.85;0.52;;;;;;;;;;6136622;28;22090;-66
2023/08/04 17:22:11;;;;;;;;;;;;;;;;;;6130990;28;20555;-70
2023/08/04 17:25:11;;;;;;;0.73;0.50;;;;;;;;;;6128725;28;20041;-69
2023/08/04 18:04:11;;;;;;;1.15;0.77;;;;;;;;;;6138836;28;20456;-77
2023/08/04 18:07:12;;;;;;;1.23;0.68;;;;;;;;;;6130518;28;20102;-77
2023/08/04 18:10:13;;;;;;;;;;;;;;;;;;6135368;28;20530;-76
2023/08/04 18:13:20;;;;;;;1.15;0.68;;;;;;;;;;6133608;28;19922;-81
2023/08/04 18:19:58;;;;;;;1.27;0.70;;;;;;;;;;6148424;28;20027;-75
2023/08/04 18:22:59;;;;;;;0.93;0.80;;;;;;;;;;6138593;29;20030;-77
2023/08/04 18:25:59;;;;;;;;;;;;;;;;;;6137096;28;20140;-77
2023/08/04 18:29:02;;;;;;;0.80;0.50;;;;;;;;;;6134685;28;19970;-77
2023/08/04 18:32:02;;;;;;;0.70;0.70;;;;;;;;;;6136511;29;20082;-75
2023/08/04 18:35:03;;;;;;;0.95;0.57;;;;;;;;;;6136401;29;20154;-71
2023/08/04 18:38:03;;;;;;;;;;;;;;;;;;6132496;28;20146;-69
2023/08/04 18:41:04;;;;;;;0.80;0.70;;;;;;;;;;6134432;29;19914;-70
2023/08/04 18:44:09;;;;;;;;;;;;;;;;;;6134079;28;20703;-70
2023/08/04 18:47:09;;;;;;;0.82;0.68;;;;;;;;;;6137612;28;20069;-69
2023/08/04 18:50:10;;;;;;;0.80;0.70;;;;;;;;;;6128560;28;20452;-69
2023/08/04 18:53:10;;;;;;;;;;;;;;;;;;6133986;29;20046;-69
2023/08/04 18:56:10;;;;;;;1.95;1.33;;;;;;;;;;6131757;29;19915;-69
2023/08/04 18:59:10;;;;;;;2.60;1.50;;;;;;;;;;6133766;28;21056;-69
2023/08/04 19:02:10;;;;;;;;;;;;;;;;;;6133475;28;20051;-69